Time;durP1;ratioP1;P1;durP2;ratioP2;P2;SDS_P1;SDS_P2;PMS_P1;PMS_P2;Temp;Humidity;BMP_temperature;BMP_pressure;BME280_temperature;BME280_humidity;BME280_pressure;Samples;Min_cycle;Max_cycle;Signal;HPM_P1;HPM_P2
2023/02/06 00:01:41;;;;;;;38.40;18.55;;;;;;;-9.72;61.57;100011.16;4787467;30;20514;-77
2023/02/06 00:04:07;;;;;;;32.88;17.70;;;;;;;-9.69;61.59;100025.00;4787551;30;20137;-78
2023/02/06 00:06:33;;;;;;;36.28;17.65;;;;;;;-9.77;61.46;100013.72;4787495;30;20143;-77
2023/02/06 00:08:59;;;;;;;37.25;18.65;;;;;;;-9.68;61.48;100031.91;4772586;30;20047;-77
2023/02/06 00:11:25;;;;;;;36.25;18.08;;;;;;;-9.72;61.51;100019.78;4789164;29;20051;-78
2023/02/06 00:13:51;;;;;;;32.88;18.45;;;;;;;-9.72;61.34;100022.38;4786882;29;20127;-77
2023/02/06 00:16:25;;;;;;;34.63;18.60;;;;;;;-9.80;61.59;100024.00;4787256;30;20487;-77
2023/02/06 00:18:52;;;;;;;43.08;18.77;;;;;;;-9.77;61.38;100023.19;4787181;30;20047;-77
2023/02/06 00:21:20;;;;;;;36.78;18.58;;;;;;;-9.93;61.46;100022.09;4802195;29;20424;-76
2023/02/06 00:23:47;;;;;;;32.45;16.48;;;;;;;-9.98;61.93;100024.63;4787303;30;20112;-77
2023/02/06 00:26:13;;;;;;;32.85;15.10;;;;;;;-10.15;62.91;100037.34;4787075;30;20058;-78
2023/02/06 00:28:39;;;;;;;30.95;15.68;;;;;;;-10.24;62.92;100023.41;4772357;30;20055;-78
2023/02/06 00:31:07;;;;;;;35.08;18.63;;;;;;;-10.06;62.31;100031.41;4772453;30;20096;-78
2023/02/06 00:33:34;;;;;;;30.23;15.60;;;;;;;-10.05;62.31;100028.84;4787303;30;20070;-77
2023/02/06 00:36:00;;;;;;;33.70;17.60;;;;;;;-10.09;62.05;100040.00;4772206;30;20085;-77
2023/02/06 00:38:29;;;;;;;40.08;19.17;;;;;;;-10.04;62.23;100037.47;4787976;29;20534;-77
2023/02/06 00:40:57;;;;;;;33.88;16.60;;;;;;;-10.03;62.20;100027.16;4786870;30;20043;-78
2023/02/06 00:43:23;;;;;;;37.47;18.00;;;;;;;-9.98;62.66;100026.34;4788185;29;20051;-78
2023/02/06 00:45:56;;;;;;;45.22;17.08;;;;;;;-9.94;62.23;100041.06;4772032;30;20568;-78
2023/02/06 00:48:23;;;;;;;31.33;16.33;;;;;;;-9.94;62.58;100036.75;4802025;29;20496;-78
2023/02/06 00:50:51;;;;;;;39.88;18.27;;;;;;;-9.89;62.38;100036.81;4786714;30;20062;-79
2023/02/06 00:53:17;;;;;;;37.90;17.95;;;;;;;-9.83;62.45;100034.31;4786908;30;20043;-78
2023/02/06 00:55:43;;;;;;;38.83;17.48;;;;;;;-9.84;62.42;100038.63;4787146;30;20146;-78
2023/02/06 00:58:09;;;;;;;32.75;16.65;;;;;;;-9.89;62.77;100035.13;4771665;30;20047;-78
2023/02/06 01:00:35;;;;;;;34.15;17.33;;;;;;;-9.82;62.82;100036.91;4757478;30;20047;-79
2023/02/06 01:03:01;;;;;;;34.65;18.02;;;;;;;-9.79;62.93;100051.59;4786673;30;20495;-78
2023/02/06 01:05:27;;;;;;;37.58;18.10;;;;;;;-9.70;62.55;100051.75;4786842;30;20085;-78
2023/02/06 01:07:54;;;;;;;46.17;18.67;;;;;;;-9.64;62.38;100046.63;4801572;29;20057;-78
2023/02/06 01:10:20;;;;;;;35.40;18.92;;;;;;;-9.65;62.47;100044.03;4786713;30;20134;-78
2023/02/06 01:12:45;;;;;;;34.13;17.90;;;;;;;-9.60;62.50;100058.75;4786659;30;20066;-77
2023/02/06 01:15:13;;;;;;;30.75;16.65;;;;;;;-9.59;62.18;100050.16;4757286;30;20054;-77
2023/02/06 01:17:40;;;;;;;35.00;17.42;;;;;;;-9.47;62.23;100058.94;4771833;30;20116;-78
2023/02/06 01:20:08;;;;;;;33.92;17.70;;;;;;;-9.45;62.01;100062.38;4786490;30;20047;-78
2023/02/06 01:22:36;;;;;;;31.88;18.25;;;;;;;-9.42;62.02;100054.66;4786607;30;20051;-77
2023/02/06 01:25:03;;;;;;;36.60;19.10;;;;;;;-9.39;62.02;100063.34;4786644;29;20051;-76
2023/02/06 01:27:29;;;;;;;40.50;18.52;;;;;;;-9.39;61.83;100058.16;4804739;29;20055;-78
2023/02/06 01:29:57;;;;;;;40.20;19.25;;;;;;;-9.44;61.80;100061.53;4789798;29;20055;-77
2023/02/06 01:32:22;;;;;;;40.45;20.17;;;;;;;-9.51;61.38;100063.19;4760612;30;20054;-78
2023/02/06 01:34:48;;;;;;;38.45;19.25;;;;;;;-9.70;61.44;100056.91;4790043;30;20567;-78
2023/02/06 01:37:14;;;;;;;32.28;17.63;;;;;;;-9.81;61.43;100063.66;4774909;30;20189;-79
2023/02/06 01:39:40;;;;;;;35.28;18.25;;;;;;;-9.96;61.54;100053.97;4760259;30;20051;-78
2023/02/06 01:42:05;;;;;;;45.83;19.45;;;;;;;-10.02;61.44;100067.69;4775454;30;20059;-78
2023/02/06 01:44:32;;;;;;;36.33;18.65;;;;;;;-10.09;61.41;100063.25;4790113;30;20465;-79
2023/02/06 01:46:58;;;;;;;38.13;18.90;;;;;;;-10.05;61.78;100062.47;4804900;29;20503;-78
2023/02/06 01:49:32;;;;;;;42.15;19.50;;;;;;;-10.02;61.89;100064.22;4774805;30;20051;-78
2023/02/06 01:52:06;;;;;;;44.63;18.45;;;;;;;-10.02;61.61;100064.22;4759907;30;20417;-78
2023/02/06 01:54:32;;;;;;;36.08;18.55;;;;;;;-10.00;61.92;100070.31;4804142;29;20047;-79
2023/02/06 01:57:03;;;;;;;36.75;18.88;;;;;;;-10.05;61.94;100048.66;4768017;30;20539;-78
2023/02/06 01:59:29;;;;;;;44.65;17.88;;;;;;;-10.14;62.09;100074.41;4801200;29;20412;-79
2023/02/06 02:01:55;;;;;;;36.63;19.92;;;;;;;-10.32;62.13;100065.53;4801743;30;20139;-78
2023/02/06 02:04:25;;;;;;;38.28;19.83;;;;;;;-10.26;61.91;100066.50;4790852;30;20065;-78
2023/02/06 02:07:17;;;;;;;40.75;19.42;;;;;;;-10.32;62.32;100067.25;4789944;30;20142;-78
2023/02/06 02:09:43;;;;;;;42.60;19.58;;;;;;;-10.34;61.95;100069.84;4785948;30;20055;-79
2023/02/06 02:12:09;;;;;;;43.30;19.67;;;;;;;-10.35;62.18;100069.78;4790467;30;20055;-78
2023/02/06 02:14:38;;;;;;;39.25;20.25;;;;;;;-10.38;62.25;100069.75;4789704;30;20070;-79
2023/02/06 02:17:35;;;;;;;39.35;18.67;;;;;;;-10.35;62.38;100069.78;4791443;29;20058;-78
2023/02/06 02:20:19;;;;;;;39.38;18.42;;;;;;;-10.31;62.14;100071.56;4742955;30;20043;-78
2023/02/06 02:22:53;;;;;;;38.75;19.15;;;;;;;-10.35;62.49;100065.50;4773839;30;20058;-79
2023/02/06 02:25:53;;;;;;;35.70;18.88;;;;;;;-10.29;62.73;100067.31;4759968;30;20047;-78
2023/02/06 02:28:38;;;;;;;38.00;18.75;;;;;;;-10.29;62.71;100060.44;4753291;30;20105;-79
2023/02/06 02:31:18;;;;;;;35.45;19.02;;;;;;;-10.17;62.61;100080.38;4773951;30;20082;-78
2023/02/06 02:33:47;;;;;;;40.65;19.25;;;;;;;-10.13;62.64;100083.88;4774694;30;20058;-78
2023/02/06 02:36:21;;;;;;;37.08;19.95;;;;;;;-10.15;62.38;100073.53;4788702;29;20055;-79
2023/02/06 02:39:11;;;;;;;38.50;19.13;;;;;;;-10.08;62.46;100090.88;4790129;29;20490;-77
2023/02/06 02:41:55;;;;;;;40.25;20.15;;;;;;;-10.08;62.60;100090.88;4759573;30;20051;-78
2023/02/06 02:44:36;;;;;;;40.13;21.50;;;;;;;-10.13;62.38;100095.09;4774290;30;20048;-79
2023/02/06 02:47:06;;;;;;;44.17;21.05;;;;;;;-10.20;62.25;100095.84;4788886;30;20055;-79
2023/02/06 02:49:36;;;;;;;46.05;20.10;;;;;;;-10.24;62.33;100088.88;4803879;29;20148;-79
2023/02/06 02:52:03;;;;;;;40.38;21.20;;;;;;;-10.23;62.30;100084.59;4788721;30;20044;-80
2023/02/06 02:54:29;;;;;;;40.53;19.27;;;;;;;-10.32;62.32;100085.34;4789023;30;20058;-80
2023/02/06 02:57:05;;;;;;;43.75;20.52;;;;;;;-10.34;62.36;100089.63;4788475;30;20063;-78
2023/02/06 02:59:36;;;;;;;37.63;19.98;;;;;;;-10.28;62.25;100092.31;4788572;30;20150;-79
2023/02/06 03:02:17;;;;;;;39.53;20.20;;;;;;;-10.25;62.47;100086.31;4788457;30;20107;-81
2023/02/06 03:04:49;;;;;;;45.88;20.92;;;;;;;-10.23;62.72;100097.50;4788363;30;20051;-79
2023/02/06 03:07:24;;;;;;;41.92;22.20;;;;;;;-10.30;62.26;100088.84;4773686;30;20146;-79
2023/02/06 03:09:53;;;;;;;40.78;20.95;;;;;;;-10.36;62.16;100083.56;4788541;30;20575;-79
2023/02/06 03:12:42;;;;;;;43.88;21.00;;;;;;;-10.44;62.38;100090.34;4788167;30;20456;-79
2023/02/06 03:15:18;;;;;;;44.63;19.75;;;;;;;-10.60;62.18;100090.09;4773822;30;20188;-80
2023/02/06 03:17:50;;;;;;;44.70;22.30;;;;;;;-10.75;62.78;100105.31;4803071;29;20110;-82
2023/02/06 03:20:17;;;;;;;40.20;20.77;;;;;;;-10.77;62.49;100107.84;4789586;29;20056;-78
2023/02/06 03:22:47;;;;;;;41.97;21.45;;;;;;;-10.77;62.51;100096.66;4787473;30;20614;-80
2023/02/06 03:25:20;;;;;;;44.90;21.48;;;;;;;-10.71;62.99;100107.13;4758208;30;20143;-77
2023/02/06 03:27:47;;;;;;;43.72;20.35;;;;;;;-10.72;62.72;100105.34;4773341;30;20095;-79
2023/02/06 03:30:17;;;;;;;47.30;19.20;;;;;;;-10.81;62.91;100100.03;4758597;30;20515;-79
2023/02/06 03:32:49;;;;;;;46.65;22.10;;;;;;;-10.88;62.69;100093.88;4788157;30;20055;-79
2023/02/06 03:35:19;;;;;;;43.58;21.33;;;;;;;-10.89;62.84;100091.28;4803001;29;20499;-80
2023/02/06 03:37:47;;;;;;;45.58;20.55;;;;;;;-10.80;62.74;100104.34;4788035;30;20056;-78
2023/02/06 03:40:15;;;;;;;45.42;21.33;;;;;;;-10.77;62.97;100109.56;4789343;29;20133;-80
2023/02/06 03:42:50;;;;;;;42.03;22.08;;;;;;;-10.77;62.97;100099.25;4772706;30;20070;-78
2023/02/06 03:45:26;;;;;;;49.20;20.65;;;;;;;-10.78;62.79;100102.69;4788761;30;20415;-79
2023/02/06 03:47:57;;;;;;;34.92;19.38;;;;;;;-10.81;62.52;100097.44;4772859;29;20580;-78
2023/02/06 03:50:25;;;;;;;45.53;21.15;;;;;;;-10.78;62.71;100107.84;4802772;29;20051;-78
2023/02/06 03:52:53;;;;;;;42.25;20.27;;;;;;;-10.81;63.00;100111.22;4787881;30;20059;-81
2023/02/06 03:55:22;;;;;;;54.20;20.08;;;;;;;-10.75;62.60;100115.66;4770614;30;20051;-79
2023/02/06 03:58:01;;;;;;;48.50;20.92;;;;;;;-10.78;62.82;100102.69;4787604;30;20114;-80
2023/02/06 04:00:30;;;;;;;45.10;20.80;;;;;;;-10.78;63.23;100115.59;4789056;29;20047;-78
2023/02/06 04:02:57;;;;;;;48.20;19.83;;;;;;;-10.86;62.95;100119.75;4802567;29;20082;-75
2023/02/06 04:05:23;;;;;;;41.55;19.33;;;;;;;-10.89;62.94;100111.94;4787448;30;20047;-78
2023/02/06 04:07:51;;;;;;;43.40;20.02;;;;;;;-10.84;62.99;100115.47;4787577;30;20522;-77
2023/02/06 04:10:17;;;;;;;42.15;18.42;;;;;;;-10.83;63.27;100112.94;4802353;29;20054;-78
2023/02/06 04:12:43;;;;;;;40.80;19.80;;;;;;;-10.76;63.39;100111.31;4787167;30;20048;-78
2023/02/06 04:15:09;;;;;;;39.88;19.95;;;;;;;-10.66;63.38;100118.38;4787268;30;20400;-78
2023/02/06 04:17:35;;;;;;;49.67;21.75;;;;;;;-10.66;62.96;100122.69;4802636;29;20108;-79
2023/02/06 04:20:01;;;;;;;46.92;21.58;;;;;;;-10.61;62.73;100124.50;4788331;30;20508;-79
2023/02/06 04:22:28;;;;;;;52.92;23.17;;;;;;;-10.52;63.01;100119.50;4787151;30;20092;-78
2023/02/06 04:24:54;;;;;;;55.00;23.00;;;;;;;-10.44;62.55;100119.63;4786356;30;20392;-79
2023/02/06 04:27:19;;;;;;;47.90;22.20;;;;;;;-10.50;62.52;100126.41;4758438;30;20146;-84
2023/02/06 04:29:45;;;;;;;47.92;21.60;;;;;;;-10.50;62.82;100126.41;4787940;29;20089;-77
2023/02/06 04:32:11;;;;;;;53.80;22.70;;;;;;;-10.46;62.60;100130.78;4787934;30;20043;-77
2023/02/06 04:34:38;;;;;;;49.05;22.08;;;;;;;-10.38;62.35;100131.75;4757331;30;20519;-78
2023/02/06 04:37:05;;;;;;;50.20;23.05;;;;;;;-10.45;62.62;100104.09;4787021;30;20504;-80
2023/02/06 04:39:32;;;;;;;51.78;19.63;;;;;;;-10.38;62.79;100127.50;4786745;30;20099;-78
2023/02/06 04:41:58;;;;;;;44.03;22.20;;;;;;;-10.42;62.39;100127.38;4801931;29;20055;-78
2023/02/06 04:44:24;;;;;;;49.20;21.30;;;;;;;-10.44;62.40;100122.22;4756863;30;20081;-77
2023/02/06 04:46:50;;;;;;;66.45;23.85;;;;;;;-10.33;62.39;100128.44;4801657;29;20055;-77
2023/02/06 04:49:16;;;;;;;50.92;21.10;;;;;;;-10.23;62.41;100119.06;4787984;29;20043;-79
2023/02/06 04:51:42;;;;;;;57.65;25.63;;;;;;;-10.08;62.36;100126.19;4786579;30;20461;-84
2023/02/06 04:54:11;;;;;;;53.88;23.42;;;;;;;-9.90;62.34;100126.47;4786488;30;20571;-77
2023/02/06 04:56:37;;;;;;;46.85;23.13;;;;;;;-9.81;62.08;100136.09;4786047;30;20051;-78
2023/02/06 04:59:03;;;;;;;47.55;23.73;;;;;;;-9.73;61.62;100131.91;4787448;30;20083;-79
2023/02/06 05:01:28;;;;;;;56.13;25.30;;;;;;;-9.62;61.55;100127.75;4785888;30;20099;-79
2023/02/06 05:03:54;;;;;;;60.10;25.85;;;;;;;-9.42;61.59;100125.41;4785527;29;20384;-77
2023/02/06 05:06:23;;;;;;;57.80;24.70;;;;;;;-9.25;61.27;100128.22;4787763;30;20055;-78
2023/02/06 05:08:49;;;;;;;75.25;25.42;;;;;;;-9.14;61.09;100131.81;4786688;30;20567;-78
2023/02/06 05:11:15;;;;;;;53.28;24.25;;;;;;;-9.00;60.46;100133.69;4771766;30;20134;-81
2023/02/06 05:13:41;;;;;;;81.47;26.50;;;;;;;-8.90;60.53;100132.94;4787368;29;20067;-78
2023/02/06 05:16:09;;;;;;;65.00;29.75;;;;;;;-8.79;60.15;100131.34;4771565;30;20047;-79
2023/02/06 05:18:35;;;;;;;54.38;22.35;;;;;;;-8.68;60.32;100136.63;4787604;30;20047;-79
2023/02/06 05:21:01;;;;;;;41.95;23.02;;;;;;;-8.47;59.98;100138.56;4787618;30;20051;-79
2023/02/06 05:23:27;;;;;;;45.53;21.00;;;;;;;-8.33;59.75;100139.53;4801348;29;20055;-78
2023/02/06 05:25:53;;;;;;;48.95;21.50;;;;;;;-8.22;59.56;100132.69;4787790;29;20142;-80
2023/02/06 05:28:18;;;;;;;46.72;22.02;;;;;;;-8.09;59.49;100134.53;4787579;29;20055;-77
2023/02/06 05:30:44;;;;;;;54.25;22.33;;;;;;;-8.00;59.10;100133.75;4786348;29;20059;-77
2023/02/06 05:33:10;;;;;;;48.42;23.83;;;;;;;-7.88;58.83;100143.34;4787883;29;20055;-79
2023/02/06 05:35:40;;;;;;;50.28;24.45;;;;;;;-7.90;58.53;100139.84;4787733;30;20114;-78
2023/02/06 05:38:06;;;;;;;81.88;34.72;;;;;;;-7.81;58.30;100134.75;4786495;30;20047;-79
2023/02/06 05:40:32;;;;;;;81.03;35.47;;;;;;;-7.70;58.50;100134.81;4786352;30;20459;-80
2023/02/06 05:42:58;;;;;;;92.10;41.42;;;;;;;-7.77;57.45;100144.28;4786805;30;20069;-79
2023/02/06 05:45:24;;;;;;;106.10;42.40;;;;;;;-7.78;57.21;100141.66;4786428;30;20499;-78
2023/02/06 05:47:52;;;;;;;92.53;43.90;;;;;;;-7.73;57.14;100140.84;4787693;30;20047;-77
2023/02/06 05:50:18;;;;;;;105.68;46.25;;;;;;;-7.62;57.18;100146.97;4786527;30;20082;-78
2023/02/06 05:52:44;;;;;;;101.60;46.30;;;;;;;-7.50;56.96;100147.91;4787896;29;20457;-78
2023/02/06 05:55:10;;;;;;;101.47;44.17;;;;;;;-7.41;56.44;100153.13;4786218;30;20138;-78
2023/02/06 05:57:36;;;;;;;100.22;45.20;;;;;;;-7.38;56.00;100148.84;4786126;30;20454;-77
2023/02/06 06:00:04;;;;;;;107.13;47.05;;;;;;;-7.24;56.16;100148.06;4786318;30;20043;-78
2023/02/06 06:02:37;;;;;;;107.60;44.88;;;;;;;-7.10;55.68;100155.03;4772083;30;20079;-78
2023/02/06 06:05:03;;;;;;;104.40;44.47;;;;;;;-7.06;55.19;100147.28;4786167;30;20534;-79
2023/02/06 06:07:32;;;;;;;92.78;40.55;;;;;;;-7.04;54.62;100155.91;4787404;30;20520;-79
2023/02/06 06:09:58;;;;;;;87.10;41.45;;;;;;;-7.05;54.36;100149.00;4770773;30;20082;-80
2023/02/06 06:12:24;;;;;;;97.43;44.63;;;;;;;-6.98;54.32;100162.03;4789043;29;20051;-80
2023/02/06 06:14:50;;;;;;;90.45;42.65;;;;;;;-6.91;54.28;100168.13;4774076;30;20396;-79
2023/02/06 06:17:15;;;;;;;96.80;43.03;;;;;;;-6.87;53.58;100164.66;4789513;30;20057;-79
2023/02/06 06:19:41;;;;;;;106.82;47.03;;;;;;;-6.86;53.62;100176.78;4774196;30;20058;-78
2023/02/06 06:22:07;;;;;;;106.57;48.33;;;;;;;-6.86;52.98;100179.38;4789555;30;20047;-78
2023/02/06 06:24:33;;;;;;;106.88;46.15;;;;;;;-6.96;52.38;100186.25;4789337;30;20047;-80
2023/02/06 06:26:59;;;;;;;140.35;50.28;;;;;;;-7.13;52.19;100177.53;4788889;30;20058;-80
2023/02/06 06:29:26;;;;;;;105.40;46.53;;;;;;;-7.19;52.72;100178.38;4789302;30;20051;-79
2023/02/06 06:31:51;;;;;;;94.88;43.30;;;;;;;-7.09;52.39;100185.34;4789131;29;20055;-77
2023/02/06 06:34:17;;;;;;;93.82;43.40;;;;;;;-7.05;52.33;100185.38;4804294;29;20043;-80
2023/02/06 06:36:43;;;;;;;83.57;39.10;;;;;;;-7.14;52.19;100191.41;4804147;29;20047;-79
2023/02/06 06:39:12;;;;;;;91.82;39.40;;;;;;;-7.18;52.12;100174.94;4788809;30;20054;-79
2023/02/06 06:41:38;;;;;;;80.93;38.92;;;;;;;-7.16;52.17;100175.78;4789376;30;20514;-80
2023/02/06 06:44:04;;;;;;;93.13;42.10;;;;;;;-7.19;52.34;100186.16;4759149;30;20141;-79
2023/02/06 06:46:30;;;;;;;94.72;41.40;;;;;;;-7.14;52.09;100189.66;4788788;30;20043;-80
2023/02/06 06:48:55;;;;;;;87.30;42.00;;;;;;;-7.01;51.93;100181.94;4790723;30;20058;-80
2023/02/06 06:51:21;;;;;;;99.22;45.85;;;;;;;-6.87;51.90;100186.31;4788903;30;20051;-79
2023/02/06 06:53:47;;;;;;;103.32;44.80;;;;;;;-6.80;52.17;100197.63;4789296;30;20090;-79
2023/02/06 06:56:14;;;;;;;93.10;42.45;;;;;;;-6.69;52.10;100185.53;4803836;29;20057;-81
2023/02/06 06:58:40;;;;;;;104.97;42.97;;;;;;;-6.62;51.92;100197.69;4790043;30;20059;-79
2023/02/06 07:01:07;;;;;;;98.90;43.90;;;;;;;-6.49;51.42;100197.72;4803830;29;20418;-81
2023/02/06 07:03:33;;;;;;;90.45;42.97;;;;;;;-6.40;51.54;100195.13;4789833;29;20078;-79
2023/02/06 07:05:59;;;;;;;103.38;44.97;;;;;;;-6.28;51.30;100208.19;4788517;30;20051;-80
2023/02/06 07:08:28;;;;;;;87.22;43.53;;;;;;;-6.33;51.28;100202.06;4788811;29;20108;-79
2023/02/06 07:10:56;;;;;;;93.85;41.13;;;;;;;-6.17;51.33;100206.47;4789727;29;20059;-79
2023/02/06 07:13:22;;;;;;;96.95;42.22;;;;;;;-6.08;51.06;100212.53;4788457;30;20055;-79
2023/02/06 07:15:48;;;;;;;75.53;39.83;;;;;;;-6.50;51.54;100206.38;4788425;30;20047;-80
2023/02/06 07:18:14;;;;;;;77.70;38.13;;;;;;;-6.70;52.63;100214.97;4758568;30;20063;-80
2023/02/06 07:20:40;;;;;;;72.38;35.00;;;;;;;-6.78;52.96;100208.88;4789661;29;20066;-81
2023/02/06 07:23:05;;;;;;;63.63;31.52;;;;;;;-6.76;52.73;100214.97;4773204;30;20047;-79
2023/02/06 07:25:31;;;;;;;58.92;31.77;;;;;;;-6.50;53.36;100209.84;4789137;29;20058;-81
2023/02/06 07:27:58;;;;;;;66.07;31.48;;;;;;;-6.36;52.30;100205.56;4789609;30;20499;-79
2023/02/06 07:30:24;;;;;;;66.68;30.70;;;;;;;-6.29;52.94;100216.81;4788133;29;20051;-80
2023/02/06 07:32:50;;;;;;;66.82;31.20;;;;;;;-6.16;52.46;100212.53;4773349;30;20047;-80
2023/02/06 07:35:17;;;;;;;72.05;30.40;;;;;;;-5.92;52.32;100214.28;4789186;29;20054;-79
2023/02/06 07:37:42;;;;;;;71.75;32.70;;;;;;;-5.91;51.77;100213.38;4788216;30;20074;-79
2023/02/06 07:40:09;;;;;;;60.30;29.67;;;;;;;-5.88;52.15;100192.56;4788131;30;20531;-79
2023/02/06 07:42:34;;;;;;;56.25;28.80;;;;;;;-5.54;51.44;100209.03;4789176;29;20047;-80
2023/02/06 07:45:09;;;;;;;56.45;28.88;;;;;;;-5.25;50.84;100195.09;4759147;30;20047;-80
2023/02/06 07:47:35;;;;;;;57.10;28.10;;;;;;;-5.02;50.00;100197.63;4758148;30;20050;-80
2023/02/06 07:50:01;;;;;;;57.72;27.67;;;;;;;-4.81;49.79;100202.78;4802718;29;20059;-80
2023/02/06 07:52:26;;;;;;;59.70;32.65;;;;;;;-4.75;49.84;100196.66;4773326;30;20047;-80
2023/02/06 07:54:52;;;;;;;73.45;32.90;;;;;;;-4.74;49.47;100201.88;4788058;30;20543;-79
2023/02/06 07:57:18;;;;;;;63.85;31.63;;;;;;;-4.67;49.59;100200.09;4772746;30;20499;-79
2023/02/06 07:59:44;;;;;;;70.25;32.95;;;;;;;-4.77;49.76;100188.00;4788747;29;20462;-80
2023/02/06 08:02:13;;;;;;;64.63;33.63;;;;;;;-4.70;50.06;100195.78;4787600;30;20408;-79
2023/02/06 08:04:39;;;;;;;78.55;33.03;;;;;;;-4.83;49.95;100196.69;4787516;30;20138;-79
2023/02/06 08:07:05;;;;;;;57.30;31.17;;;;;;;-4.59;50.17;100177.44;4772678;30;20146;-81
2023/02/06 08:09:32;;;;;;;62.85;31.02;;;;;;;-4.54;49.47;100195.69;4772367;30;20047;-79
2023/02/06 08:11:58;;;;;;;60.67;30.80;;;;;;;-4.77;49.86;100196.69;4802269;29;20055;-80
2023/02/06 08:14:24;;;;;;;67.88;32.38;;;;;;;-4.61;50.21;100200.06;4788375;30;20147;-78
2023/02/06 08:16:50;;;;;;;58.28;31.45;;;;;;;-4.12;49.84;100198.94;4788306;29;20071;-80
2023/02/06 08:19:16;;;;;;;57.35;28.52;;;;;;;-3.87;49.14;100204.81;4802045;29;20130;-79
2023/02/06 08:21:42;;;;;;;51.55;25.00;;;;;;;-3.88;48.34;100203.09;4787281;30;20216;-80
2023/02/06 08:24:10;;;;;;;59.38;27.75;;;;;;;-4.21;48.99;100202.47;4802029;29;20186;-81
2023/02/06 08:26:36;;;;;;;51.80;27.55;;;;;;;-4.10;49.18;100200.63;4802279;29;20047;-79
2023/02/06 08:29:04;;;;;;;54.05;26.55;;;;;;;-3.84;49.04;100191.75;4787367;30;20047;-80
2023/02/06 08:31:36;;;;;;;50.58;27.95;;;;;;;-3.68;48.68;100202.06;4788301;29;20047;-79
2023/02/06 08:34:02;;;;;;;45.88;24.75;;;;;;;-3.96;48.90;100190.09;4787261;30;20054;-81
2023/02/06 08:36:30;;;;;;;49.85;25.95;;;;;;;-3.50;48.86;100192.31;4787187;30;20137;-81
2023/02/06 08:38:57;;;;;;;36.90;20.10;;;;;;;-3.72;49.08;100192.53;4786927;30;20050;-81
2023/02/06 08:41:27;;;;;;;36.50;19.77;;;;;;;-3.58;48.98;100187.16;4787178;30;20047;-82
2023/02/06 08:43:55;;;;;;;33.40;17.02;;;;;;;-3.47;49.13;100187.06;4786909;30;20055;-81
2023/02/06 08:46:23;;;;;;;32.97;17.23;;;;;;;-3.25;48.94;100175.50;4787256;29;20111;-78
2023/02/06 08:48:58;;;;;;;27.90;17.23;;;;;;;-2.98;48.75;100194.41;4786635;30;20519;-78
2023/02/06 08:51:27;;;;;;;33.15;17.58;;;;;;;-2.76;48.08;100190.66;4771676;30;20051;-80
2023/02/06 08:53:57;;;;;;;;;;;;;;;-2.45;47.80;100200.72;4787111;30;20054;-78
2023/02/06 08:56:23;;;;;;;;;;;;;;;-2.63;46.85;100204.47;4786992;30;19928;-80
2023/02/06 08:58:50;;;;;;;36.33;17.20;;;;;;;-2.56;47.53;100192.13;4786572;29;19926;-78
2023/02/06 09:01:16;;;;;;;28.75;15.93;;;;;;;-2.40;47.06;100190.22;4801779;29;20188;-81
2023/02/06 09:03:44;;;;;;;41.70;18.25;;;;;;;-2.20;46.81;100201.25;4757270;30;20142;-79
2023/02/06 09:06:10;;;;;;;38.63;19.65;;;;;;;-2.40;46.50;100204.16;4787686;30;20554;-78
2023/02/06 09:08:37;;;;;;;38.13;19.90;;;;;;;-2.35;46.52;100212.81;4786636;30;20054;-78
2023/02/06 09:11:10;;;;;;;34.92;19.92;;;;;;;-2.70;46.39;100201.06;4801582;29;20112;-80
2023/02/06 09:13:36;;;;;;;34.97;18.95;;;;;;;-2.55;46.35;100212.22;4771391;30;20159;-79
2023/02/06 09:16:03;;;;;;;34.90;19.80;;;;;;;-2.59;46.45;100198.31;4786618;30;20407;-82
2023/02/06 09:18:29;;;;;;;34.47;20.00;;;;;;;-2.42;45.86;100195.44;4801302;29;20048;-84
2023/02/06 09:21:09;;;;;;;37.53;19.38;;;;;;;-2.45;45.61;100206.81;4757624;30;20051;-80
2023/02/06 09:23:35;;;;;;;36.58;20.17;;;;;;;-2.32;46.04;100202.28;4802029;29;20059;-81
2023/02/06 09:26:01;;;;;;;51.67;19.90;;;;;;;-2.29;45.98;100207.50;4786999;30;20109;-80
2023/02/06 09:28:27;;;;;;;46.38;19.35;;;;;;;-2.32;46.13;100197.06;4801827;29;20492;-79
2023/02/06 09:30:53;;;;;;;37.88;19.13;;;;;;;-2.16;45.57;100202.94;4787487;29;20062;-86
2023/02/06 09:33:20;;;;;;;39.75;21.15;;;;;;;-1.91;45.21;100207.81;4785740;29;20539;-80
2023/02/06 09:35:46;;;;;;;36.00;19.20;;;;;;;-1.60;45.65;100202.94;4769786;30;20051;-79
2023/02/06 09:38:12;;;;;;;49.38;19.38;;;;;;;-1.43;44.50;100200.03;4782926;30;20077;-83
2023/02/06 09:40:38;;;;;;;40.13;19.70;;;;;;;-1.42;44.20;100202.63;4769454;30;20528;-81
2023/02/06 09:43:04;;;;;;;33.47;19.08;;;;;;;-1.49;44.58;100201.00;4770131;30;20059;-81
2023/02/06 09:45:32;;;;;;;35.17;17.85;;;;;;;-1.56;44.46;100204.63;4785146;30;20051;-79
2023/02/06 09:48:12;;;;;;;33.60;18.98;;;;;;;-1.52;44.83;100209.78;4757977;30;20059;-80
2023/02/06 09:51:01;;;;;;;34.80;19.20;;;;;;;-1.94;44.41;100198.25;4773665;30;20059;-83
2023/02/06 09:54:14;;;;;;;30.83;18.50;;;;;;;-2.24;44.92;100203.03;4788248;30;20145;-79
2023/02/06 09:57:30;;;;;;;35.00;18.08;;;;;;;-3.07;46.62;100211.06;4750007;30;20724;-80
2023/02/06 10:00:05;;;;;;;27.30;16.60;;;;;;;-3.26;47.65;100205.16;4720076;30;20044;-81
2023/02/06 10:03:08;;;;;;;34.03;16.17;;;;;;;-3.13;47.41;100205.03;4734952;30;20634;-82
2023/02/06 10:05:58;;;;;;;26.88;15.35;;;;;;;-2.92;47.23;100198.72;4777612;30;20051;-79
2023/02/06 10:08:36;;;;;;;32.72;16.13;;;;;;;-3.22;47.08;100201.63;4770660;30;20162;-80
2023/02/06 10:11:10;;;;;;;31.10;17.00;;;;;;;-3.37;48.17;100201.78;4771222;30;20143;-78
2023/02/06 10:13:42;;;;;;;40.67;16.95;;;;;;;-3.45;48.16;100198.38;4772001;30;20159;-79
2023/02/06 10:16:31;;;;;;;30.92;16.88;;;;;;;-3.31;48.07;100195.63;4756848;30;20048;-81
2023/02/06 10:19:07;;;;;;;34.08;14.45;;;;;;;-3.26;48.23;100197.31;4770883;30;20148;-80
2023/02/06 10:22:13;;;;;;;41.13;15.93;;;;;;;-3.35;48.64;100205.25;4772482;30;20048;-79
2023/02/06 10:25:02;;;;;;;34.78;16.95;;;;;;;-3.21;48.57;100194.66;4771217;30;20444;-82
2023/02/06 10:27:32;;;;;;;37.45;17.02;;;;;;;-3.02;48.23;100208.41;4748138;30;20512;-79
2023/02/06 10:29:59;;;;;;;39.55;17.17;;;;;;;-3.17;47.72;100194.59;4772117;30;20090;-79
2023/02/06 10:32:52;;;;;;;42.88;17.33;;;;;;;-3.03;48.02;100201.44;4771623;30;20052;-80
2023/02/06 10:35:22;;;;;;;32.95;16.23;;;;;;;-3.41;48.44;100205.31;4771892;30;20044;-80
2023/02/06 10:38:21;;;;;;;34.30;15.85;;;;;;;-3.11;48.37;100200.66;4755969;30;20056;-82
2023/02/06 10:41:06;;;;;;;27.58;15.70;;;;;;;-2.98;47.95;100213.56;4756066;30;20051;-80
2023/02/06 10:43:57;;;;;;;34.45;13.52;;;;;;;-3.15;47.88;100206.81;4771280;30;20055;-80
2023/02/06 10:46:40;;;;;;;24.60;12.60;;;;;;;-3.00;48.14;100217.09;4754474;30;20055;-82
2023/02/06 10:49:45;;;;;;;32.22;15.52;;;;;;;-2.90;47.47;100212.63;4785623;30;20129;-82
2023/02/06 10:52:25;;;;;;;24.92;13.93;;;;;;;-2.74;47.75;100220.28;4744859;30;20063;-80
2023/02/06 10:54:57;;;;;;;31.88;16.48;;;;;;;-2.76;47.18;100222.03;4780064;30;20084;-84
2023/02/06 10:57:29;;;;;;;27.70;15.27;;;;;;;-2.72;47.65;100213.28;4780890;29;20412;-81
2023/02/06 11:00:03;;;;;;;25.60;14.27;;;;;;;-2.92;47.26;100219.63;4787764;30;20122;-82
2023/02/06 11:02:43;;;;;;;27.13;13.70;;;;;;;-3.07;47.19;100216.31;4780962;30;20105;-81
2023/02/06 11:05:19;;;;;;;29.40;14.77;;;;;;;-3.35;47.43;100231.38;4803921;29;20055;-81
2023/02/06 11:08:07;;;;;;;30.45;15.60;;;;;;;-3.39;48.16;100231.44;4803590;29;20055;-80
2023/02/06 11:10:33;;;;;;;29.20;13.70;;;;;;;-3.52;47.88;100234.16;4773526;30;20538;-81
2023/02/06 11:13:02;;;;;;;23.02;11.25;;;;;;;-4.07;48.49;100212.81;4788083;30;20067;-82
2023/02/06 11:15:33;;;;;;;27.40;14.68;;;;;;;-4.04;48.76;100231.06;4758606;30;20047;-82
2023/02/06 11:18:06;;;;;;;41.00;14.57;;;;;;;-4.09;48.99;100232.84;4758800;30;20055;-81
2023/02/06 11:20:34;;;;;;;34.10;12.02;;;;;;;-4.47;49.56;100233.94;4788738;30;20054;-83